Time;durP1;ratioP1;P1;durP2;ratioP2;P2;SDS_P1;SDS_P2;PMS_P1;PMS_P2;Temp;Humidity;BMP_temperature;BMP_pressure;BME280_temperature;BME280_humidity;BME280_pressure;Samples;Min_cycle;Max_cycle;Signal;HPM_P1;HPM_P2
2023/05/01 00:02:37;;;;;;;;;;;10.40;39.90;;;9.29;42.24;101794.03;12250037;19;19935;-86
2023/05/01 00:06:39;;;;;;;;;;;10.40;39.90;;;8.89;42.20;101730.16;12253112;19;19915;-85
2023/05/01 00:10:40;;;;;;;;;;;10.30;39.90;;;9.25;42.07;101797.63;12250759;19;19935;-85
2023/05/01 00:14:42;;;;;;;;;;;10.30;40.00;;;8.97;42.26;101754.22;12253719;19;19903;-86
2023/05/01 00:18:44;;;;;;;;;;;10.30;40.00;;;9.11;42.31;101781.59;12249286;19;19919;-86
2023/05/01 00:22:46;;;;;;;;;;;10.20;40.00;;;9.13;42.31;101793.66;12254668;19;20317;-86
2023/05/01 00:26:48;;;;;;;;;;;10.20;40.10;;;9.05;42.15;101780.03;12252077;19;19922;-86
2023/05/01 00:30:51;;;;;;;;;;;10.20;40.10;;;9.03;42.19;101776.63;12254525;19;19915;-86
2023/05/01 00:34:53;;;;;;;;;;;10.10;40.10;;;8.92;42.30;101766.53;12253587;19;19918;-85
2023/05/01 00:38:54;;;;;;;;;;;10.20;40.10;;;8.81;42.36;101753.84;12249278;19;20329;-85
2023/05/01 00:42:56;;;;;;;;;;;10.10;40.10;;;8.91;42.30;101777.00;12252667;19;19918;-85
2023/05/01 00:46:59;;;;;;;;;;;10.10;40.10;;;8.60;42.41;101736.28;12250470;19;19953;-86
2023/05/01 00:51:04;;;;;;;;;;;10.00;40.00;;;8.77;42.22;101778.25;12252061;19;19918;-85
2023/05/01 00:55:07;;;;;;;;;;;9.90;40.00;;;8.62;42.60;101766.59;12251214;19;19939;-86
2023/05/01 00:59:09;;;;;;;;;;;9.90;40.00;;;8.62;42.46;101774.38;12247969;19;19922;-86
2023/05/01 01:03:10;;;;;;;;;;;10.00;40.10;;;8.54;42.59;101760.75;12249556;19;20321;-86
2023/05/01 01:07:22;;;;;;;;;;;9.80;40.20;;;8.55;42.57;101761.59;12248120;19;19927;-85
2023/05/01 01:11:36;;;;;;;;;;;9.70;40.20;;;8.41;42.38;101747.25;12251661;19;19933;-86
2023/05/01 01:16:06;;;;;;;;;;;9.70;40.20;;;8.43;42.52;101762.81;12248212;19;19929;-85
2023/05/01 01:20:52;;;;;;;;;;;9.70;40.30;;;8.33;42.70;101751.78;12247084;19;19915;-85
2023/05/01 01:25:12;;;;;;;;;;;9.60;40.20;;;8.36;42.70;101764.72;12260164;19;20274;-86
2023/05/01 01:29:51;;;;;;;;;;;9.50;40.20;;;8.31;42.55;101756.19;12254562;19;19994;-85
2023/05/01 01:34:13;;;;;;;;;;;9.50;40.20;;;8.14;42.56;101737.63;12258763;19;20225;-85
2023/05/01 01:38:18;;;;;;;;;;;9.50;40.20;;;8.22;42.60;101753.84;12254047;19;19978;-85
2023/05/01 01:42:25;;;;;;;;;;;9.50;40.30;;;8.03;42.64;101726.66;12254146;19;19914;-85
2023/05/01 01:46:27;;;;;;;;;;;9.40;40.30;;;8.05;42.67;101741.34;12256719;19;19957;-85
2023/05/01 01:50:30;;;;;;;;;;;9.30;40.20;;;8.05;42.68;101748.28;12257130;19;19919;-85
2023/05/01 01:54:38;;;;;;;;;;;9.20;40.30;;;7.91;42.75;101733.94;12258082;19;19911;-85
2023/05/01 01:58:40;;;;;;;;;;;9.20;40.20;;;7.92;42.87;101735.63;12249068;19;19922;-85
2023/05/01 02:02:43;;;;;;;;;;;9.20;40.30;;;7.56;42.73;101679.44;12253633;19;19966;-85
2023/05/01 02:06:45;;;;;;;;;;;9.10;40.30;;;7.87;42.76;101734.91;12254835;19;19915;-85
2023/05/01 02:10:49;;;;;;;;;;;9.10;40.30;;;7.52;42.71;101676.91;12256856;19;19978;-85
2023/05/01 02:14:52;;;;;;;;;;;9.10;40.40;;;7.81;42.80;101729.88;12256495;19;19950;-85
2023/05/01 02:18:55;;;;;;;;;;;9.10;40.40;;;7.79;42.79;101729.06;12253102;19;19914;-85
2023/05/01 02:22:58;;;;;;;;;;;9.10;40.40;;;7.76;43.07;101722.19;12255531;19;19918;-85
2023/05/01 02:27:08;;;;;;;;;;;9.00;40.70;;;7.71;42.87;101718.00;12254687;19;19927;-84
2023/05/01 02:31:10;;;;;;;;;;;9.00;40.40;;;7.59;42.95;101705.31;12255905;19;19944;-84
2023/05/01 02:35:12;;;;;;;;;;;9.00;40.40;;;7.52;43.02;101697.69;12254903;19;19946;-85
2023/05/01 02:39:13;;;;;;;;;;;9.20;40.50;;;7.51;42.84;101701.22;12252043;19;19986;-84
2023/05/01 02:43:17;;;;;;;;;;;8.90;40.40;;;7.35;42.96;101673.94;12254551;19;20361;-84
2023/05/01 02:47:21;;;;;;;;;;;8.80;40.30;;;7.45;43.03;101710.91;12250742;19;20379;-84
2023/05/01 02:51:23;;;;;;;;;;;8.80;40.30;;;7.10;43.06;101655.50;12252515;19;19974;-85
2023/05/01 02:55:25;;;;;;;;;;;8.70;40.30;;;6.94;42.93;101631.72;12254037;19;19903;-84
2023/05/01 02:59:27;;;;;;;;;;;8.70;40.30;;;7.21;43.08;101689.00;12250060;19;19924;-85
2023/05/01 03:03:29;;;;;;;;;;;8.50;40.30;;;6.99;43.09;101657.53;12254293;19;20268;-84
2023/05/01 03:07:34;;;;;;;;;;;8.50;40.30;;;7.06;43.05;101667.72;12251439;19;19922;-85
2023/05/01 03:11:35;;;;;;;;;;;8.40;40.40;;;6.88;43.02;101637.03;12253215;19;19923;-84
2023/05/01 03:15:38;;;;;;;;;;;8.30;40.50;;;6.99;42.94;101660.13;12254747;19;19930;-84
2023/05/01 03:19:41;;;;;;;;;;;8.30;40.50;;;6.68;43.08;101613.31;12249557;19;19923;-85
2023/05/01 03:23:42;;;;;;;;;;;8.30;40.50;;;6.91;43.36;101652.53;12253551;19;19911;-85
2023/05/01 03:27:44;;;;;;;;;;;8.20;40.60;;;6.84;43.31;101644.06;12255491;19;19949;-85
2023/05/01 03:31:46;;;;;;;;;;;8.20;40.60;;;6.80;43.29;101633.78;12257294;19;19911;-85
2023/05/01 03:35:47;;;;;;;;;;;8.20;40.70;;;6.75;43.11;101635.63;12254224;19;19960;-85
2023/05/01 03:39:50;;;;;;;;;;;8.10;40.70;;;6.54;43.38;101611.06;12250200;19;19910;-84
2023/05/01 03:44:11;;;;;;;;;;;8.10;40.80;;;6.73;43.25;101643.47;12254336;19;19979;-85
2023/05/01 03:48:17;;;;;;;;;;;8.00;40.70;;;6.63;43.27;101627.25;12251230;19;19923;-85
2023/05/01 03:52:18;;;;;;;;;;;8.10;40.80;;;6.48;43.40;101596.50;12253612;19;19914;-84
2023/05/01 03:56:24;;;;;;;;;;;8.00;40.90;;;6.37;43.29;101580.31;12250122;19;19923;-85
2023/05/01 04:00:27;;;;;;;;;;;8.20;40.90;;;6.46;43.33;101602.63;12250062;19;19926;-84
2023/05/01 04:04:28;;;;;;;;;;;8.00;40.90;;;6.65;43.27;101641.06;12250040;19;19921;-85
2023/05/01 04:08:31;;;;;;;;;;;8.00;40.90;;;6.50;43.41;101606.84;12248852;19;19915;-85
2023/05/01 04:12:33;;;;;;;;;;;8.30;41.10;;;6.62;43.37;101629.91;12250261;19;19923;-85
2023/05/01 04:16:35;;;;;;;;;;;8.00;41.00;;;6.57;43.52;101626.56;12244712;19;19954;-85
2023/05/01 04:20:37;;;;;;;;;;;8.20;41.20;;;6.57;43.61;101630.00;12248754;19;19915;-85
2023/05/01 04:24:38;;;;;;;;;;;8.00;41.00;;;6.57;43.66;101634.34;12250539;19;19934;-85
2023/05/01 04:28:40;;;;;;;;;;;8.00;41.10;;;6.56;43.53;101628.31;12248009;19;19922;-85
2023/05/01 04:32:45;;;;;;;;;;;8.00;41.10;;;6.48;43.58;101606.00;12243499;19;19922;-85
2023/05/01 04:36:47;;;;;;;;;;;8.00;41.30;;;6.31;43.75;101586.50;12248531;19;19911;-85
2023/05/01 04:40:49;;;;;;;;;;;8.00;41.30;;;6.50;43.81;101619.81;12247252;19;19922;-85
2023/05/01 04:44:51;;;;;;;;;;;8.00;41.30;;;6.51;43.69;101621.50;12248106;19;19923;-85
2023/05/01 04:48:55;;;;;;;;;;;8.00;41.40;;;6.28;43.89;101570.19;12245507;19;19911;-85
2023/05/01 04:52:58;;;;;;;;;;;8.00;41.40;;;6.35;43.98;101576.94;12249271;19;20309;-85
2023/05/01 04:57:00;;;;;;;;;;;8.00;41.40;;;6.28;43.94;101567.59;12252493;19;19910;-85
2023/05/01 05:01:02;;;;;;;;;;;8.00;41.40;;;6.63;43.85;101622.06;12257050;19;20297;-85
2023/05/01 05:05:04;;;;;;;;;;;8.10;41.60;;;6.60;44.07;101603.97;12258228;19;20233;-85
2023/05/01 05:09:06;;;;;;;;;;;8.10;41.70;;;6.57;44.07;101592.84;12253531;19;19911;-84
2023/05/01 05:13:08;;;;;;;;;;;8.10;41.70;;;6.76;44.21;101622.63;12259006;19;19925;-85
2023/05/01 05:17:11;;;;;;;;;;;8.20;41.90;;;6.80;44.32;101618.19;12256021;19;19922;-85
2023/05/01 05:21:13;;;;;;;;;;;8.20;41.90;;;6.76;44.12;101591.47;12253964;19;19919;-85
2023/05/01 05:25:21;;;;;;;;;;;8.30;42.10;;;6.82;44.31;101583.53;12257125;19;20333;-84
2023/05/01 05:29:23;;;;;;;;;;;8.40;42.10;;;7.00;44.16;101600.38;12253425;19;19943;-85
2023/05/01 05:33:25;;;;;;;;;;;8.40;42.10;;;7.12;44.38;101594.00;12256644;19;19922;-85
2023/05/01 05:37:26;;;;;;;;;;;8.60;42.60;;;6.99;44.44;101551.91;12246205;19;19918;-84
2023/05/01 05:41:28;;;;;;;;;;;8.70;42.20;;;7.28;44.42;101578.84;12253561;19;19978;-83
2023/05/01 05:45:33;;;;;;;;;;;9.00;42.50;;;7.34;44.58;101565.69;12253863;19;19935;-84
2023/05/01 05:49:35;;;;;;;;;;;8.90;42.60;;;7.62;44.60;101577.91;12248369;19;19911;-84
2023/05/01 05:53:36;;;;;;;;;;;9.10;42.70;;;7.84;44.53;101578.97;12253834;19;20333;-84
2023/05/01 05:57:38;;;;;;;;;;;9.20;42.70;;;8.04;44.85;101574.91;12252010;19;20313;-85
2023/05/01 06:01:41;;;;;;;;;;;9.50;42.80;;;8.26;44.74;101565.50;12252084;19;19924;-84
2023/05/01 06:05:44;;;;;;;;;;;9.70;43.00;;;8.24;44.86;101511.84;12256286;19;19915;-85
2023/05/01 06:09:45;;;;;;;;;;;10.00;43.20;;;8.65;44.84;101541.72;12250453;19;20312;-84
2023/05/01 06:13:47;;;;;;;;;;;10.30;43.10;;;8.82;44.94;101518.53;12255937;19;19922;-83
2023/05/01 06:17:48;;;;;;;;;;;10.60;43.10;;;9.29;44.85;101560.28;12254995;19;19918;-85
2023/05/01 06:21:50;;;;;;;;;;;10.80;43.10;;;9.29;44.89;101522.97;12254927;19;19974;-86
2023/05/01 06:25:51;;;;;;;;;;;11.10;43.00;;;9.77;44.75;101560.25;12258652;19;19919;-85
2023/05/01 06:29:52;;;;;;;;;;;11.30;42.80;;;9.93;44.84;101557.00;12257612;19;20680;-85
2023/05/01 06:33:54;;;;;;;;;;;11.70;42.60;;;10.08;44.81;101552.09;12260542;19;19928;-86
2023/05/01 06:38:06;;;;;;;;;;;11.70;42.30;;;10.37;44.89;101557.03;12256502;19;19923;-86
2023/05/01 06:42:10;;;;;;;;;;;11.90;42.30;;;10.53;44.91;101552.03;12256523;19;19914;-85
2023/05/01 06:46:14;;;;;;;;;;;12.10;41.90;;;10.65;44.75;101540.19;12258625;19;20016;-85
2023/05/01 06:50:15;;;;;;;;;;;12.30;41.90;;;10.63;44.87;101516.75;12259226;19;19918;-85
2023/05/01 06:54:17;;;;;;;;;;;12.30;41.90;;;11.02;44.62;101543.84;12257087;19;19927;-85
2023/05/01 06:58:19;;;;;;;;;;;12.60;41.80;;;11.13;44.58;101535.53;12254814;19;19918;-85
2023/05/01 07:02:21;;;;;;;;;;;12.80;41.80;;;11.26;44.61;101526.19;12257046;19;19919;-84
2023/05/01 07:06:23;;;;;;;;;;;13.00;41.70;;;11.47;44.63;101527.84;12254209;19;19926;-86
2023/05/01 07:10:24;;;;;;;;;;;13.10;41.60;;;11.57;44.79;101523.03;12256698;19;19922;-87
2023/05/01 07:14:26;;;;;;;;;;;13.30;41.60;;;11.77;44.64;101526.50;12257849;19;19931;-85
2023/05/01 07:18:28;;;;;;;;;;;13.50;41.50;;;11.86;44.59;101506.00;12245803;19;19923;-85
2023/05/01 07:22:29;;;;;;;;;;;13.60;41.40;;;12.23;44.69;101540.00;12251348;19;19918;-85
2023/05/01 07:26:31;;;;;;;;;;;13.80;41.40;;;12.30;44.66;101520.47;12250931;19;20451;-85
2023/05/01 07:30:35;;;;;;;;;;;14.00;41.60;;;12.49;44.63;101517.78;12252920;19;19918;-86
2023/05/01 07:34:36;;;;;;;;;;;14.20;41.20;;;12.80;44.71;101517.91;12251235;19;19926;-86
2023/05/01 07:38:38;;;;;;;;;;;14.40;41.30;;;13.07;44.60;101517.41;12247601;19;19933;-85
2023/05/01 07:42:39;;;;;;;;;;;14.60;40.90;;;13.34;44.63;101507.22;12249839;19;19939;-86
2023/05/01 07:46:40;;;;;;;;;;;14.80;40.90;;;13.53;44.60;101493.94;12247928;19;19914;-86
2023/05/01 07:50:42;;;;;;;;;;;15.10;41.10;;;13.85;44.62;101499.16;12250883;19;19914;-85
2023/05/01 07:54:48;;;;;;;;;;;15.40;40.30;;;14.10;44.56;101509.97;12247310;19;19946;-85
2023/05/01 07:58:49;;;;;;;;;;;15.60;40.90;;;14.23;44.51;101489.09;12248246;19;19910;-86
2023/05/01 08:02:51;;;;;;;;;;;15.90;40.40;;;14.37;44.39;101475.16;12246069;19;19918;-85
2023/05/01 08:06:53;;;;;;;;;;;16.10;40.50;;;14.64;44.38;101475.31;12247162;19;19942;-85
2023/05/01 08:10:55;;;;;;;;;;;16.20;40.20;;;14.63;44.30;101433.34;12248396;19;19975;-85
2023/05/01 08:14:56;;;;;;;;;;;16.50;39.90;;;15.11;44.45;101484.72;12248857;19;19918;-87
2023/05/01 08:18:58;;;;;;;;;;;16.70;40.30;;;15.21;44.42;101458.69;12248314;19;19911;-86
2023/05/01 08:22:59;;;;;;;;;;;16.80;40.10;;;15.39;44.32;101460.16;12247844;19;19978;-86
2023/05/01 08:27:01;;;;;;;;;;;17.00;39.30;;;15.64;44.46;101474.38;12237999;19;19911;-87
2023/05/01 08:31:03;;;;;;;;;;;17.30;40.10;;;15.75;44.37;101463.19;12244658;19;20292;-87
2023/05/01 08:35:04;;;;;;;;;;;17.40;39.20;;;16.04;44.16;101482.31;12244487;19;19948;-87
2023/05/01 08:39:06;;;;;;;;;;;17.60;39.50;;;16.17;44.19;101477.91;12244210;19;19915;-88
2023/05/01 08:43:08;;;;;;;;;;;17.80;39.10;;;16.31;44.18;101463.81;12245969;19;19930;-88
2023/05/01 08:47:16;;;;;;;;;;;17.90;38.30;;;16.59;43.86;101462.78;12246260;19;19922;-87
2023/05/01 08:51:19;;;;;;;;;;;18.10;37.70;;;16.75;43.90;101455.50;12249288;19;19922;-86
2023/05/01 08:55:25;;;;;;;;;;;18.30;37.80;;;16.69;43.92;101413.75;12242023;19;21496;-87
2023/05/01 08:59:29;;;;;;;;;;;18.50;36.20;;;17.10;43.66;101454.03;12243804;19;19978;-88
2023/05/01 09:03:31;;;;;;;;;;;18.60;37.90;;;17.09;43.77;101418.00;12246619;19;19923;-89
2023/05/01 09:07:33;;;;;;;;;;;18.80;35.90;;;17.25;43.42;101429.16;12242180;19;19922;-88
2023/05/01 09:11:37;;;;;;;;;;;18.90;34.80;;;17.42;43.11;101431.44;12245098;19;19929;-87
2023/05/01 09:15:39;;;;;;;;;;;19.00;33.60;;;17.54;43.33;101431.47;12243950;19;19915;-88
2023/05/01 09:19:40;;;;;;;;;;;19.10;37.10;;;17.69;43.01;101417.16;12241369;19;20269;-88
2023/05/01 09:23:42;;;;;;;;;;;19.10;36.20;;;17.68;43.05;101391.69;12245670;19;20387;-87
2023/05/01 09:27:44;;;;;;;;;;;19.20;35.30;;;17.92;42.77;101413.66;12242672;19;19927;-87
2023/05/01 09:31:46;;;;;;;;;;;19.30;37.10;;;17.98;42.91;101398.28;12246033;19;19925;-88
2023/05/01 09:35:48;;;;;;;;;;;19.50;34.80;;;18.21;42.91;101402.69;12244040;19;19922;-87
2023/05/01 09:40:03;;;;;;;;;;;19.60;37.00;;;18.31;42.49;101386.97;12242023;19;19937;-88
2023/05/01 09:44:04;;;;;;;;;;;19.70;36.50;;;18.25;42.78;101353.03;12248581;19;19911;-87
2023/05/01 09:48:09;;;;;;;;;;;19.80;35.80;;;18.63;42.33;101380.94;12254840;19;19926;-88
2023/05/01 09:52:11;;;;;;;;;;;20.00;35.50;;;18.70;42.33;101368.91;12256255;19;19933;-88
2023/05/01 09:56:13;;;;;;;;;;;20.10;35.90;;;18.61;42.37;101336.09;12257101;19;19919;-87
2023/05/01 10:00:16;;;;;;;;;;;20.20;36.00;;;18.75;42.34;101337.69;12255837;19;20325;-87
2023/05/01 10:04:28;;;;;;;;;;;20.30;35.70;;;18.94;42.33;101353.75;12258298;19;19919;-88
2023/05/01 10:08:49;;;;;;;;;;;20.40;35.80;;;19.08;42.22;101351.81;12251517;19;20015;-87
2023/05/01 10:12:50;;;;;;;;;;;20.50;37.00;;;19.06;42.06;101324.59;12254624;19;19946;-88
2023/05/01 10:16:51;;;;;;;;;;;20.60;37.20;;;19.31;41.99;101334.88;12253763;19;19919;-87
2023/05/01 10:20:53;;;;;;;;;;;20.70;37.00;;;19.40;42.15;101328.81;12251615;19;20341;-87
2023/05/01 10:24:55;;;;;;;;;;;20.90;36.70;;;19.58;41.88;101336.22;12253237;19;19926;-87
2023/05/01 10:28:58;;;;;;;;;;;21.00;35.20;;;19.65;41.72;101332.91;12251252;19;19924;-87
2023/05/01 10:32:59;;;;;;;;;;;21.10;35.80;;;19.71;41.75;101320.13;12253996;19;19954;-87
2023/05/01 10:37:09;;;;;;;;;;;21.20;37.50;;;19.67;41.81;101291.25;12253069;19;19922;-88
2023/05/01 10:41:11;;;;;;;;;;;21.30;38.00;;;19.92;41.77;101302.41;12251999;19;19923;-86
2023/05/01 10:45:33;;;;;;;;;;;21.40;37.50;;;20.01;41.54;101285.72;12254839;19;19923;-86
2023/05/01 10:50:07;;;;;;;;;;;21.50;35.50;;;20.17;41.69;101303.81;12251439;19;20236;-86
2023/05/01 10:54:11;;;;;;;;;;;21.50;36.30;;;20.25;41.30;101279.25;12253166;19;19949;-86
2023/05/01 10:58:36;;;;;;;;;;;21.60;36.40;;;20.33;41.65;101274.09;12253636;19;20034;-86
2023/05/01 11:02:37;;;;;;;;;;;21.70;35.90;;;20.34;41.45;101251.94;12250946;19;20420;-86
2023/05/01 11:06:59;;;;;;;;;;;21.80;34.70;;;20.55;41.55;101273.13;12254343;19;19914;-85
2023/05/01 11:11:20;;;;;;;;;;;21.90;36.20;;;20.64;41.46;101274.09;12252190;19;19910;-87
2023/05/01 11:15:26;;;;;;;;;;;21.90;35.60;;;20.68;41.03;101257.75;12253127;19;19938;-87
2023/05/01 11:19:28;;;;;;;;;;;22.00;37.00;;;20.74;40.97;101249.25;12251314;19;19922;-87
2023/05/01 11:23:30;;;;;;;;;;;22.10;37.00;;;20.73;40.92;101244.91;12255577;19;20333;-86
2023/05/01 11:27:31;;;;;;;;;;;22.10;36.10;;;20.73;40.81;101247.56;12250087;19;19926;-87
2023/05/01 11:31:33;;;;;;;;;;;22.10;35.30;;;20.56;40.79;101208.44;12255118;19;19974;-87
2023/05/01 11:35:35;;;;;;;;;;;22.10;35.40;;;20.66;40.77;101208.47;12253385;19;19922;-87
2023/05/01 11:39:36;;;;;;;;;;;22.10;35.30;;;20.66;40.85;101190.72;12248567;19;19922;-87
2023/05/01 11:43:51;;;;;;;;;;;22.10;35.70;;;20.96;40.70;101202.19;12253060;19;19915;-86
2023/05/01 11:47:53;;;;;;;;;;;22.20;35.40;;;21.03;40.47;101195.31;12251762;19;19926;-86
2023/05/01 11:51:56;;;;;;;;;;;22.30;33.90;;;21.15;40.12;101202.16;12251406;19;19932;-88
2023/05/01 11:55:58;;;;;;;;;;;22.40;32.70;;;21.23;40.44;101187.34;12249037;19;20276;-87
2023/05/01 12:00:00;;;;;;;;;;;22.50;34.90;;;21.27;40.31;101173.59;12249038;19;19930;-90
2023/05/01 12:04:02;;;;;;;;;;;22.50;34.20;;;21.31;40.25;101164.38;12251528;19;19918;-86
2023/05/01 12:08:07;;;;;;;;;;;22.60;35.00;;;21.50;40.22;101178.63;12241191;19;19941;-87
2023/05/01 12:12:08;;;;;;;;;;;22.70;35.20;;;21.36;39.74;101151.50;12253656;19;19986;-86
2023/05/01 12:16:10;;;;;;;;;;;22.80;35.30;;;21.60;39.74;101166.13;12251171;19;20270;-87
2023/05/01 12:20:12;;;;;;;;;;;22.80;33.90;;;21.61;39.62;101155.34;12250338;19;19911;-86
2023/05/01 12:24:15;;;;;;;;;;;22.90;35.10;;;21.68;39.63;101144.13;12249396;19;20357;-87
2023/05/01 12:28:19;;;;;;;;;;;22.90;33.60;;;21.76;39.92;101146.88;12248598;19;19911;-86
2023/05/01 12:32:28;;;;;;;;;;;23.00;34.80;;;21.76;39.84;101146.88;12251188;19;19994;-87
2023/05/01 12:36:36;;;;;;;;;;;23.10;36.20;;;21.90;39.53;101149.06;12247754;19;19929;-88
2023/05/01 12:40:39;;;;;;;;;;;23.10;35.30;;;21.70;39.71;101103.13;12249188;19;19943;-88
2023/05/01 12:44:41;;;;;;;;;;;23.10;34.40;;;21.92;39.43;101131.13;12247683;19;19926;-88
2023/05/01 12:48:43;;;;;;;;;;;23.20;34.80;;;21.86;39.40;101107.78;12247402;19;19910;-89
2023/05/01 12:52:44;;;;;;;;;;;23.20;34.60;;;21.95;39.89;101114.88;12249031;19;20345;-87
2023/05/01 12:56:45;;;;;;;;;;;23.20;34.20;;;21.78;39.55;101076.63;12248342;19;20266;-86
2023/05/01 13:00:50;;;;;;;;;;;23.20;34.60;;;22.01;39.38;101103.66;12249269;19;19959;-86
2023/05/01 13:04:51;;;;;;;;;;;23.20;32.50;;;21.88;39.30;101089.88;12250889;19;20269;-86
2023/05/01 13:08:53;;;;;;;;;;;23.20;32.10;;;21.77;39.49;101064.34;12244577;19;19951;-87
2023/05/01 13:12:54;;;;;;;;;;;23.20;35.10;;;22.06;39.23;101106.69;12251269;19;19914;-87
2023/05/01 13:16:56;;;;;;;;;;;23.20;34.40;;;22.02;39.38;101089.34;12240526;19;19915;-87
2023/05/01 13:21:08;;;;;;;;;;;23.30;33.00;;;22.05;39.09;101094.38;12259276;19;19915;-87
2023/05/01 13:25:16;;;;;;;;;;;23.20;36.00;;;21.96;39.19;101071.34;12256986;19;20338;-86
2023/05/01 13:29:17;;;;;;;;;;;23.20;33.70;;;22.15;38.71;101078.34;12252682;19;19952;-86
2023/05/01 13:33:19;;;;;;;;;;;23.30;34.50;;;22.28;39.07;101092.16;12260231;19;19919;-87
2023/05/01 13:37:21;;;;;;;;;;;23.40;34.60;;;22.24;38.89;101082.78;12260943;19;19943;-85
2023/05/01 13:41:25;;;;;;;;;;;23.50;32.10;;;22.19;38.47;101061.13;12260785;19;19919;-86
2023/05/01 13:45:26;;;;;;;;;;;23.40;32.80;;;22.31;38.83;101073.22;12264012;19;19962;-86
2023/05/01 13:49:27;;;;;;;;;;;23.50;33.70;;;22.37;38.30;101069.09;12255876;19;19915;-87
2023/05/01 13:53:29;;;;;;;;;;;23.50;34.20;;;22.51;38.68;101075.69;12259230;19;19931;-87
2023/05/01 13:57:31;;;;;;;;;;;23.60;34.30;;;22.50;38.70;101056.25;12255706;19;19923;-86
2023/05/01 14:01:41;;;;;;;;;;;23.70;32.50;;;22.60;38.52;101057.97;12252733;19;19918;-86
2023/05/01 14:05:43;;;;;;;;;;;23.70;34.80;;;22.69;38.52;101044.56;12256182;19;20123;-87
2023/05/01 14:09:51;;;;;;;;;;;23.90;34.10;;;22.72;38.22;101038.09;12253893;19;19918;-87
2023/05/01 14:13:56;;;;;;;;;;;23.90;35.50;;;22.77;38.03;101025.16;12258840;19;20356;-87
2023/05/01 14:18:06;;;;;;;;;;;23.90;34.60;;;22.82;38.34;101024.66;12254532;19;19919;-85
2023/05/01 14:22:08;;;;;;;;;;;24.00;35.30;;;22.88;38.05;101013.41;12256140;19;19910;-85
2023/05/01 14:26:15;;;;;;;;;;;24.10;35.20;;;22.96;38.04;101018.81;12257765;19;19918;-85
2023/05/01 14:30:26;;;;;;;;;;;24.10;34.30;;;22.99;38.25;101010.50;12255522;19;19928;-87
2023/05/01 14:34:28;;;;;;;;;;;24.10;35.30;;;23.03;37.96;101019.00;12255721;19;20408;-86
2023/05/01 14:38:37;;;;;;;;;;;24.10;35.30;;;23.00;38.29;101004.16;12253197;19;19918;-86
2023/05/01 14:42:42;;;;;;;;;;;24.10;35.50;;;23.02;38.28;101010.16;12252870;19;19919;-85
2023/05/01 14:46:46;;;;;;;;;;;24.20;35.10;;;22.83;37.80;100968.59;12253620;19;19945;-87
2023/05/01 14:50:48;;;;;;;;;;;24.10;35.50;;;22.92;37.79;100969.47;12252312;19;19929;-86
2023/05/01 14:54:51;;;;;;;;;;;24.20;34.80;;;22.99;38.02;100975.03;12246876;19;19958;-86
2023/05/01 14:58:53;;;;;;;;;;;24.20;34.70;;;23.13;38.12;100987.75;12247620;19;19922;-86
2023/05/01 15:02:57;;;;;;;;;;;24.20;34.60;;;23.15;38.13;100977.75;12246987;19;20677;-86
2023/05/01 15:06:59;;;;;;;;;;;24.20;35.10;;;23.14;37.61;100986.72;12243458;19;19934;-86
2023/05/01 15:11:01;;;;;;;;;;;24.20;35.10;;;22.96;37.94;100957.53;12247526;19;20345;-86
2023/05/01 15:15:03;;;;;;;;;;;24.20;33.30;;;23.10;37.67;100988.06;12250279;19;19922;-86
2023/05/01 15:19:04;;;;;;;;;;;24.20;33.60;;;23.01;37.63;100978.34;12246883;19;19915;-87
2023/05/01 15:23:06;;;;;;;;;;;24.20;35.00;;;22.93;37.42;100961.31;12248048;19;20340;-86
2023/05/01 15:27:07;;;;;;;;;;;24.10;34.00;;;22.95;37.21;100962.00;12246458;19;20253;-87
2023/05/01 15:31:09;;;;;;;;;;;24.10;34.30;;;23.03;37.41;100976.38;12251250;19;20346;-86
2023/05/01 15:35:10;;;;;;;;;;;24.10;30.40;;;22.95;37.05;100970.00;12248859;19;19934;-86
2023/05/01 15:39:12;;;;;;;;;;;24.10;33.40;;;23.01;37.45;100986.34;12244658;19;19911;-85
2023/05/01 15:43:14;;;;;;;;;;;24.00;34.00;;;22.98;36.95;100979.53;12245683;19;20345;-86
2023/05/01 15:47:16;;;;;;;;;;;24.00;34.10;;;22.88;36.90;100968.94;12246143;19;19915;-86
2023/05/01 15:51:18;;;;;;;;;;;24.00;34.50;;;22.91;36.93;100973.97;12249495;19;19922;-86
2023/05/01 15:55:20;;;;;;;;;;;23.90;34.80;;;22.79;36.90;100964.59;12247721;19;20373;-87
2023/05/01 15:59:21;;;;;;;;;;;23.90;34.10;;;22.78;37.27;100957.56;12245589;19;19974;-89
2023/05/01 16:03:24;;;;;;;;;;;23.90;33.30;;;22.86;36.83;100970.94;12248945;19;20276;-89
2023/05/01 16:07:27;;;;;;;;;;;23.80;34.40;;;22.85;36.80;100963.94;12248955;19;19979;-88
2023/05/01 16:11:30;;;;;;;;;;;23.80;34.40;;;22.76;37.02;100946.25;12246967;19;19950;-88
2023/05/01 16:15:32;;;;;;;;;;;23.80;33.90;;;22.84;36.99;100958.78;12248277;19;19918;-88
2023/05/01 16:19:36;;;;;;;;;;;23.80;34.60;;;22.85;36.81;100963.94;12243912;19;19915;-87
2023/05/01 16:23:38;;;;;;;;;;;23.80;35.00;;;22.63;36.80;100924.53;12248970;19;20230;-87
2023/05/01 16:27:43;;;;;;;;;;;23.80;35.00;;;22.65;36.85;100934.03;12246384;19;19956;-87
2023/05/01 16:31:46;;;;;;;;;;;23.80;33.60;;;22.79;36.78;100963.72;12247843;19;19943;-88
2023/05/01 16:35:48;;;;;;;;;;;23.80;32.50;;;22.71;36.67;100952.06;12247348;19;20268;-88
2023/05/01 16:39:50;;;;;;;;;;;23.70;33.90;;;22.68;36.64;100956.84;12243227;19;19922;-88
2023/05/01 16:43:52;;;;;;;;;;;23.70;34.20;;;22.61;36.55;100942.53;12248066;19;19931;-88
2023/05/01 16:47:54;;;;;;;;;;;23.60;33.70;;;22.67;36.87;100960.50;12245313;19;19983;-88
2023/05/01 16:51:56;;;;;;;;;;;23.60;34.50;;;22.58;36.81;100943.66;12246933;19;20007;-88
2023/05/01 16:55:57;;;;;;;;;;;23.60;34.60;;;22.66;36.55;100956.19;12257987;19;20312;-88
2023/05/01 16:59:59;;;;;;;;;;;23.60;34.70;;;22.66;36.51;100954.38;12249720;19;19923;-87
2023/05/01 17:04:01;;;;;;;;;;;23.60;34.90;;;22.60;36.75;100944.34;12257403;19;19945;-88
2023/05/01 17:08:03;;;;;;;;;;;23.60;34.70;;;22.63;36.56;100954.69;12255830;19;19996;-86
2023/05/01 17:12:05;;;;;;;;;;;23.60;34.70;;;22.60;36.55;100952.34;12258110;19;19932;-86
2023/05/01 17:16:07;;;;;;;;;;;23.50;34.90;;;22.51;36.54;100934.63;12256498;19;19934;-86
2023/05/01 17:20:10;;;;;;;;;;;23.50;35.00;;;22.59;36.64;100955.16;12257604;19;20357;-86
2023/05/01 17:24:12;;;;;;;;;;;23.50;35.20;;;22.57;36.83;100938.50;12256850;19;19911;-86
2023/05/01 17:28:14;;;;;;;;;;;23.60;35.30;;;22.25;36.82;100890.25;12255296;19;19922;-88
2023/05/01 17:32:15;;;;;;;;;;;23.50;35.10;;;22.46;36.87;100937.75;12250111;19;20301;-85
2023/05/01 17:36:17;;;;;;;;;;;23.50;35.10;;;22.46;36.50;100935.09;12251414;19;19923;-85
2023/05/01 17:40:19;;;;;;;;;;;23.50;35.30;;;22.36;36.81;100931.72;12252205;19;19919;-87
2023/05/01 17:44:20;;;;;;;;;;;23.40;35.20;;;22.25;36.67;100929.31;12254256;19;20319;-84
2023/05/01 17:48:22;;;;;;;;;;;23.30;35.20;;;22.23;36.41;100936.63;12250812;19;19918;-86
2023/05/01 17:52:24;;;;;;;;;;;23.20;35.00;;;22.13;36.59;100919.88;12256919;19;20349;-85
2023/05/01 17:56:27;;;;;;;;;;;23.10;35.30;;;21.84;36.46;100900.53;12255949;19;19911;-85
2023/05/01 18:00:30;;;;;;;;;;;23.00;35.40;;;21.99;36.36;100935.41;12253809;19;19927;-85
2023/05/01 18:04:32;;;;;;;;;;;22.90;35.50;;;21.85;36.62;100925.31;12243272;19;19925;-86
2023/05/01 18:08:33;;;;;;;;;;;22.90;35.60;;;21.68;36.82;100916.34;12254009;19;19915;-85
2023/05/01 18:12:34;;;;;;;;;;;22.80;35.50;;;21.71;36.40;100920.53;12253513;19;20253;-85
2023/05/01 18:16:36;;;;;;;;;;;22.70;35.60;;;21.66;36.59;100928.97;12253543;19;20298;-85
2023/05/01 18:20:39;;;;;;;;;;;22.60;35.50;;;21.60;36.67;100925.13;12251963;19;19915;-87
2023/05/01 18:24:40;;;;;;;;;;;22.50;35.60;;;21.50;36.39;100919.03;12255528;19;19919;-85